Time;durP1;ratioP1;P1;durP2;ratioP2;P2;SDS_P1;SDS_P2;PMS_P1;PMS_P2;Temp;Humidity;BMP_temperature;BMP_pressure;BME280_temperature;BME280_humidity;BME280_pressure;Samples;Min_cycle;Max_cycle;Signal;HPM_P1;HPM_P2
2023/08/26 00:01:18;;;;;;;18.48;8.20;;;;;;;;;;5047764;28;20045;-69
2023/08/26 00:03:45;;;;;;;16.33;8.43;;;;;;;;;;5047293;28;20127;-66
2023/08/26 00:06:10;;;;;;;17.55;8.50;;;;;;;;;;5034229;28;20468;-68
2023/08/26 00:08:36;;;;;;;15.63;7.90;;;;;;;;;;5039912;28;20187;-68
2023/08/26 00:11:03;;;;;;;19.30;8.90;;;;;;;;;;5046400;28;20451;-70
2023/08/26 00:13:30;;;;;;;17.00;8.32;;;;;;;;;;5048213;28;20057;-68
2023/08/26 00:15:57;;;;;;;14.55;8.77;;;;;;;;;;5046540;28;20085;-69
2023/08/26 00:18:25;;;;;;;17.38;8.38;;;;;;;;;;5039143;28;20049;-70
2023/08/26 00:20:52;;;;;;;15.90;8.77;;;;;;;;;;5046508;28;20126;-68
2023/08/26 00:23:18;;;;;;;15.52;7.97;;;;;;;;;;5029987;28;20511;-69
2023/08/26 00:25:45;;;;;;;13.70;8.13;;;;;;;;;;5033315;28;20048;-69
2023/08/26 00:28:11;;;;;;;24.42;8.10;;;;;;;;;;5050665;28;20077;-69
2023/08/26 00:30:37;;;;;;;16.00;7.80;;;;;;;;;;5023444;28;20049;-68
2023/08/26 00:33:03;;;;;;;15.20;7.68;;;;;;;;;;5028050;28;20049;-68
2023/08/26 00:35:29;;;;;;;11.75;8.35;;;;;;;;;;5047516;28;20068;-69
2023/08/26 00:38:01;;;;;;;16.08;8.05;;;;;;;;;;5044634;28;20071;-69
2023/08/26 00:40:27;;;;;;;15.27;8.15;;;;;;;;;;5046349;28;20077;-69
2023/08/26 00:42:54;;;;;;;12.45;8.70;;;;;;;;;;5025543;28;20057;-69
2023/08/26 00:45:20;;;;;;;15.38;8.25;;;;;;;;;;5047737;28;20273;-71
2023/08/26 00:48:27;;;;;;;14.23;8.35;;;;;;;;;;5013085;28;20055;-70
2023/08/26 00:52:08;;;;;;;15.45;8.60;;;;;;;;;;5045900;28;20064;-69
2023/08/26 00:55:49;;;;;;;15.43;8.77;;;;;;;;;;5051475;28;20059;-69
2023/08/26 00:59:29;;;;;;;11.75;7.55;;;;;;;;;;5048164;28;20204;-68
2023/08/26 01:03:11;;;;;;;14.10;8.48;;;;;;;;;;5040071;28;20037;-68
2023/08/26 01:06:51;;;;;;;19.08;8.48;;;;;;;;;;5044629;28;20076;-70
2023/08/26 01:10:32;;;;;;;14.60;8.70;;;;;;;;;;5046585;28;20105;-69
2023/08/26 01:14:04;;;;;;;18.58;9.00;;;;;;;;;;5046453;28;20037;-68
2023/08/26 01:17:45;;;;;;;14.75;9.15;;;;;;;;;;5044482;28;20527;-68
2023/08/26 01:21:28;;;;;;;21.90;8.88;;;;;;;;;;5041755;28;20124;-69
2023/08/26 01:25:08;;;;;;;16.63;8.85;;;;;;;;;;5046617;28;20526;-68
2023/08/26 01:28:48;;;;;;;16.17;8.85;;;;;;;;;;5043628;28;20037;-69
2023/08/26 01:32:28;;;;;;;17.90;9.20;;;;;;;;;;5040966;28;20047;-68
2023/08/26 01:36:09;;;;;;;14.95;9.52;;;;;;;;;;5041887;28;20036;-68
2023/08/26 01:39:49;;;;;;;15.50;8.68;;;;;;;;;;5048948;28;20349;-68
2023/08/26 01:43:29;;;;;;;14.93;8.30;;;;;;;;;;5035901;28;20559;-68
2023/08/26 01:47:13;;;;;;;19.05;9.10;;;;;;;;;;5046494;28;20045;-68
2023/08/26 01:50:53;;;;;;;13.65;8.88;;;;;;;;;;5055247;28;20051;-68
2023/08/26 01:54:33;;;;;;;15.95;9.23;;;;;;;;;;5045283;28;20556;-68
2023/08/26 01:58:14;;;;;;;16.70;8.43;;;;;;;;;;5048343;28;20051;-69
2023/08/26 02:01:54;;;;;;;17.13;9.05;;;;;;;;;;5038763;28;20501;-68
2023/08/26 02:05:34;;;;;;;14.00;8.82;;;;;;;;;;5040751;28;20057;-70
2023/08/26 02:09:15;;;;;;;20.75;9.40;;;;;;;;;;5048901;28;20488;-69
2023/08/26 02:12:55;;;;;;;17.92;9.77;;;;;;;;;;5044362;28;20045;-71
2023/08/26 02:16:35;;;;;;;17.38;10.05;;;;;;;;;;5043105;28;20048;-68
2023/08/26 02:20:17;;;;;;;14.23;9.95;;;;;;;;;;5051939;28;20057;-70
2023/08/26 02:23:57;;;;;;;17.40;10.40;;;;;;;;;;5048923;28;20045;-68
2023/08/26 02:27:39;;;;;;;17.65;9.60;;;;;;;;;;5046321;28;20542;-68
2023/08/26 02:31:18;;;;;;;22.20;10.48;;;;;;;;;;5049200;28;20135;-70
2023/08/26 02:34:58;;;;;;;18.23;10.32;;;;;;;;;;5049771;28;20606;-68
2023/08/26 02:38:44;;;;;;;16.60;9.60;;;;;;;;;;5046474;28;20161;-68
2023/08/26 02:42:29;;;;;;;18.52;10.63;;;;;;;;;;5043376;28;20049;-67
2023/08/26 02:46:11;;;;;;;17.83;10.65;;;;;;;;;;5042908;28;20408;-68
2023/08/26 02:49:52;;;;;;;21.38;10.50;;;;;;;;;;5045903;28;20040;-68
2023/08/26 02:53:33;;;;;;;15.68;10.50;;;;;;;;;;5039497;28;20071;-68
2023/08/26 02:57:14;;;;;;;17.23;10.57;;;;;;;;;;5041489;28;20056;-68
2023/08/26 03:00:55;;;;;;;21.25;10.57;;;;;;;;;;5044908;28;20067;-69
2023/08/26 03:04:34;;;;;;;24.05;10.90;;;;;;;;;;5045225;28;20128;-69
2023/08/26 03:08:14;;;;;;;17.95;10.70;;;;;;;;;;5043730;28;20419;-68
2023/08/26 03:11:56;;;;;;;18.23;10.45;;;;;;;;;;5043345;28;20044;-67
2023/08/26 03:15:36;;;;;;;17.95;10.75;;;;;;;;;;5040781;28;20075;-67
2023/08/26 03:19:17;;;;;;;18.35;11.05;;;;;;;;;;5043271;28;20068;-69
2023/08/26 03:22:57;;;;;;;15.77;10.50;;;;;;;;;;5039561;28;20056;-67
2023/08/26 03:26:37;;;;;;;18.45;10.48;;;;;;;;;;5040881;28;20763;-67
2023/08/26 03:30:19;;;;;;;14.57;9.95;;;;;;;;;;5039997;28;20029;-69
2023/08/26 03:33:59;;;;;;;21.08;10.73;;;;;;;;;;5039788;28;20049;-67
2023/08/26 03:37:39;;;;;;;14.35;10.38;;;;;;;;;;5038590;28;20053;-68
2023/08/26 03:41:23;;;;;;;15.60;9.43;;;;;;;;;;5038589;28;20045;-67
2023/08/26 03:45:04;;;;;;;16.98;9.77;;;;;;;;;;5042828;28;20037;-67
2023/08/26 03:48:43;;;;;;;22.10;10.07;;;;;;;;;;5041298;28;20056;-68
2023/08/26 03:52:23;;;;;;;19.15;8.95;;;;;;;;;;5045239;28;20085;-68
2023/08/26 03:56:04;;;;;;;17.00;9.68;;;;;;;;;;5042417;28;20052;-69
2023/08/26 03:59:44;;;;;;;16.30;9.68;;;;;;;;;;5045407;28;20116;-67
2023/08/26 04:03:24;;;;;;;21.83;10.45;;;;;;;;;;5050504;28;20479;-67
2023/08/26 04:07:05;;;;;;;17.25;10.18;;;;;;;;;;5046136;28;20131;-68
2023/08/26 04:10:45;;;;;;;14.75;10.60;;;;;;;;;;5047861;28;20388;-69
2023/08/26 04:14:25;;;;;;;18.40;10.05;;;;;;;;;;5041968;28;20516;-68
2023/08/26 04:18:07;;;;;;;16.75;9.98;;;;;;;;;;5044293;28;20114;-68
2023/08/26 04:21:46;;;;;;;14.63;9.57;;;;;;;;;;5048526;28;20131;-70
2023/08/26 04:25:27;;;;;;;18.60;10.55;;;;;;;;;;5053548;28;20077;-68
2023/08/26 04:29:07;;;;;;;17.52;10.40;;;;;;;;;;5044627;28;20091;-69
2023/08/26 04:32:48;;;;;;;18.63;10.48;;;;;;;;;;5047994;28;20076;-69
2023/08/26 04:36:28;;;;;;;19.90;10.30;;;;;;;;;;5042954;28;20124;-68
2023/08/26 04:40:14;;;;;;;17.23;10.35;;;;;;;;;;5044990;28;20047;-69
2023/08/26 04:43:35;;;;;;;;;;;;;;;;;;5049120;28;20047;-70
2023/08/26 04:47:16;;;;;;;18.42;10.32;;;;;;;;;;5039908;28;19935;-70
2023/08/26 04:50:56;;;;;;;16.05;10.35;;;;;;;;;;5043052;28;20400;-67
2023/08/26 04:54:36;;;;;;;18.38;10.70;;;;;;;;;;5050707;28;20059;-69
2023/08/26 04:58:18;;;;;;;16.42;10.10;;;;;;;;;;5044767;28;20508;-68
2023/08/26 05:01:58;;;;;;;17.30;10.32;;;;;;;;;;5045079;28;20132;-69
2023/08/26 05:05:38;;;;;;;18.60;10.52;;;;;;;;;;5046243;28;20071;-69
2023/08/26 05:09:18;;;;;;;16.92;10.55;;;;;;;;;;5045810;28;20049;-69
2023/08/26 05:13:00;;;;;;;19.08;11.02;;;;;;;;;;5043099;28;20041;-70
2023/08/26 05:16:42;;;;;;;17.65;10.18;;;;;;;;;;5044208;28;20053;-68
2023/08/26 05:20:22;;;;;;;21.02;11.48;;;;;;;;;;5050965;28;20068;-68
2023/08/26 05:24:03;;;;;;;16.25;11.20;;;;;;;;;;5045985;28;20041;-69
2023/08/26 05:27:43;;;;;;;16.95;10.45;;;;;;;;;;5042239;28;20095;-69
2023/08/26 05:31:23;;;;;;;18.00;11.60;;;;;;;;;;5047171;28;20126;-70
2023/08/26 05:35:05;;;;;;;24.42;11.73;;;;;;;;;;5043548;28;20044;-69
2023/08/26 05:38:45;;;;;;;19.90;11.30;;;;;;;;;;5044807;28;20051;-69
2023/08/26 05:42:25;;;;;;;19.00;11.82;;;;;;;;;;5048443;28;20078;-69
2023/08/26 05:46:06;;;;;;;20.80;11.75;;;;;;;;;;5048014;28;20033;-69
2023/08/26 05:49:46;;;;;;;17.33;11.38;;;;;;;;;;5045105;28;20052;-69
2023/08/26 05:53:26;;;;;;;19.23;11.25;;;;;;;;;;5039916;28;20049;-69
2023/08/26 05:57:10;;;;;;;21.10;11.07;;;;;;;;;;5041659;28;20041;-70
2023/08/26 06:00:48;;;;;;;22.50;11.70;;;;;;;;;;5045162;28;20041;-69
2023/08/26 06:04:29;;;;;;;19.27;11.30;;;;;;;;;;5041253;28;20032;-68
2023/08/26 06:08:09;;;;;;;19.30;11.20;;;;;;;;;;5049363;28;20489;-69
2023/08/26 06:11:49;;;;;;;22.33;11.20;;;;;;;;;;5045607;28;20056;-68
2023/08/26 06:15:30;;;;;;;19.27;11.82;;;;;;;;;;5040376;28;20056;-68
2023/08/26 06:19:11;;;;;;;32.25;12.07;;;;;;;;;;5047158;28;20523;-69
2023/08/26 06:22:51;;;;;;;23.88;11.40;;;;;;;;;;5047981;28;20411;-69
2023/08/26 06:26:35;;;;;;;21.63;11.40;;;;;;;;;;5042565;28;20045;-69
2023/08/26 06:30:15;;;;;;;21.80;11.55;;;;;;;;;;5043943;28;20045;-69
2023/08/26 06:33:58;;;;;;;21.48;11.82;;;;;;;;;;5040028;28;20407;-68
2023/08/26 06:37:38;;;;;;;19.40;11.95;;;;;;;;;;5041038;28;20063;-69
2023/08/26 06:41:19;;;;;;;21.30;10.90;;;;;;;;;;5043551;28;20071;-69
2023/08/26 06:45:00;;;;;;;27.95;11.98;;;;;;;;;;5032749;28;20069;-69
2023/08/26 06:48:41;;;;;;;30.92;11.70;;;;;;;;;;5037615;28;20087;-69
2023/08/26 06:52:21;;;;;;;20.58;11.65;;;;;;;;;;5038606;28;20179;-69
2023/08/26 06:56:03;;;;;;;23.90;12.10;;;;;;;;;;5038049;28;20489;-66
2023/08/26 06:59:45;;;;;;;19.05;11.10;;;;;;;;;;5044642;28;20451;-66
2023/08/26 07:03:25;;;;;;;21.10;12.15;;;;;;;;;;5042296;28;20094;-67
2023/08/26 07:07:05;;;;;;;26.05;12.48;;;;;;;;;;5040216;28;20076;-66
2023/08/26 07:10:50;;;;;;;18.17;12.13;;;;;;;;;;5041083;28;20474;-68
2023/08/26 07:14:30;;;;;;;24.48;12.18;;;;;;;;;;5038190;28;20127;-67
2023/08/26 07:18:13;;;;;;;20.48;11.32;;;;;;;;;;5039374;28;20080;-68
2023/08/26 07:21:54;;;;;;;19.77;11.88;;;;;;;;;;5038652;28;20057;-65
2023/08/26 07:25:34;;;;;;;22.52;12.70;;;;;;;;;;5039158;28;20044;-64
2023/08/26 07:29:15;;;;;;;25.05;12.18;;;;;;;;;;5040193;28;20064;-69
2023/08/26 07:32:58;;;;;;;23.15;12.05;;;;;;;;;;5044175;28;20060;-68
2023/08/26 07:36:46;;;;;;;18.48;11.25;;;;;;;;;;5039866;28;20161;-68
2023/08/26 07:40:27;;;;;;;19.23;10.02;;;;;;;;;;5042195;28;20049;-68
2023/08/26 07:44:07;;;;;;;20.20;10.95;;;;;;;;;;5043842;28;20048;-68
2023/08/26 07:47:48;;;;;;;17.60;10.10;;;;;;;;;;5042089;28;20519;-68
2023/08/26 07:51:29;;;;;;;22.25;9.73;;;;;;;;;;5037870;28;20084;-65
2023/08/26 07:54:31;;;;;;;20.55;9.40;;;;;;;;;;5034979;28;20043;-70
2023/08/26 07:56:57;;;;;;;14.70;9.02;;;;;;;;;;5037370;28;20064;-66
2023/08/26 07:59:25;;;;;;;20.13;9.23;;;;;;;;;;5023464;28;20053;-69
2023/08/26 08:01:53;;;;;;;17.98;9.20;;;;;;;;;;5041032;28;20045;-71
2023/08/26 08:04:19;;;;;;;16.35;10.00;;;;;;;;;;5042387;28;20048;-68
2023/08/26 08:06:47;;;;;;;16.88;9.85;;;;;;;;;;5043502;28;20072;-71
2023/08/26 08:09:15;;;;;;;16.27;9.43;;;;;;;;;;5022347;28;20076;-70
2023/08/26 08:11:42;;;;;;;19.70;9.63;;;;;;;;;;5043025;28;20061;-67
2023/08/26 08:14:11;;;;;;;14.57;9.15;;;;;;;;;;5026588;28;20063;-69
2023/08/26 08:16:37;;;;;;;15.68;9.13;;;;;;;;;;5028173;28;20061;-68
2023/08/26 08:19:03;;;;;;;14.07;8.57;;;;;;;;;;5046273;28;20064;-71
2023/08/26 08:21:31;;;;;;;21.33;10.13;;;;;;;;;;5051601;28;20500;-66
2023/08/26 08:23:56;;;;;;;17.23;9.52;;;;;;;;;;5038322;28;20044;-72
2023/08/26 08:26:27;;;;;;;16.73;9.90;;;;;;;;;;5053194;28;20048;-67
2023/08/26 08:28:58;;;;;;;18.58;8.93;;;;;;;;;;5050954;28;20088;-66
2023/08/26 08:31:24;;;;;;;16.30;9.15;;;;;;;;;;5048307;28;20049;-68
2023/08/26 08:33:52;;;;;;;14.23;8.63;;;;;;;;;;5041164;28;20060;-68
2023/08/26 08:36:21;;;;;;;14.85;8.77;;;;;;;;;;5041047;28;20068;-69
2023/08/26 08:38:47;;;;;;;19.20;8.73;;;;;;;;;;5045506;28;20485;-69
2023/08/26 08:41:13;;;;;;;13.75;8.77;;;;;;;;;;5039378;28;20044;-69
2023/08/26 08:43:45;;;;;;;15.40;9.05;;;;;;;;;;5047207;28;20040;-69
2023/08/26 08:46:13;;;;;;;14.70;8.40;;;;;;;;;;5032253;28;20057;-69
2023/08/26 08:49:05;;;;;;;14.38;8.90;;;;;;;;;;5036205;28;20040;-67
2023/08/26 08:52:12;;;;;;;15.57;9.15;;;;;;;;;;5033297;28;20099;-70
2023/08/26 08:55:52;;;;;;;17.20;9.45;;;;;;;;;;5041508;28;20060;-66
2023/08/26 08:59:32;;;;;;;17.75;8.77;;;;;;;;;;5046158;28;20057;-66
2023/08/26 09:03:14;;;;;;;11.70;8.18;;;;;;;;;;5044134;28;20544;-66
2023/08/26 09:06:55;;;;;;;20.40;9.50;;;;;;;;;;5041477;28;20049;-65
2023/08/26 09:10:37;;;;;;;12.63;8.55;;;;;;;;;;5042370;28;20427;-66
2023/08/26 09:14:18;;;;;;;17.25;8.55;;;;;;;;;;5047379;28;21037;-68
2023/08/26 09:17:59;;;;;;;18.25;9.02;;;;;;;;;;5045866;28;20045;-67
2023/08/26 09:21:41;;;;;;;15.60;8.65;;;;;;;;;;5034781;28;20045;-67
2023/08/26 09:25:21;;;;;;;14.40;8.45;;;;;;;;;;5042702;28;20063;-67
2023/08/26 09:29:07;;;;;;;14.73;8.13;;;;;;;;;;5041035;28;20471;-67
2023/08/26 09:32:30;;;;;;;12.85;7.97;;;;;;;;;;5038011;28;20044;-68
2023/08/26 09:36:11;;;;;;;12.88;7.40;;;;;;;;;;5034975;28;20174;-70
2023/08/26 09:40:07;;;;;;;14.13;7.65;;;;;;;;;;5035617;28;20054;-66
2023/08/26 09:43:48;;;;;;;12.95;7.82;;;;;;;;;;5038340;28;20400;-65
2023/08/26 09:47:31;;;;;;;12.70;7.43;;;;;;;;;;5040933;28;20056;-68
2023/08/26 09:51:11;;;;;;;15.27;7.38;;;;;;;;;;5032521;28;20048;-68
2023/08/26 09:54:51;;;;;;;14.52;7.82;;;;;;;;;;5043332;28;20049;-68
2023/08/26 09:58:33;;;;;;;16.73;8.02;;;;;;;;;;5040004;28;20107;-69
2023/08/26 10:02:13;;;;;;;14.35;8.60;;;;;;;;;;5034527;28;20056;-68
2023/08/26 10:05:53;;;;;;;15.05;8.57;;;;;;;;;;5035148;28;20102;-71
2023/08/26 10:09:35;;;;;;;13.23;8.38;;;;;;;;;;5036148;28;20391;-72
2023/08/26 10:13:18;;;;;;;16.83;9.65;;;;;;;;;;5029430;28;20068;-69
2023/08/26 10:17:00;;;;;;;13.25;7.85;;;;;;;;;;5033542;28;20061;-68
2023/08/26 10:20:40;;;;;;;13.80;8.02;;;;;;;;;;5031595;28;20053;-69
2023/08/26 10:24:21;;;;;;;11.70;7.13;;;;;;;;;;5036216;28;20084;-67
2023/08/26 10:28:03;;;;;;;10.93;7.25;;;;;;;;;;5037659;28;20128;-67
2023/08/26 10:31:45;;;;;;;13.88;7.13;;;;;;;;;;5036040;28;20041;-67
2023/08/26 10:35:22;;;;;;;9.95;7.22;;;;;;;;;;5031505;28;20518;-67
2023/08/26 10:39:02;;;;;;;11.48;7.15;;;;;;;;;;5025528;28;20060;-67
2023/08/26 10:42:54;;;;;;;17.20;7.50;;;;;;;;;;5032428;28;20155;-67
2023/08/26 10:46:36;;;;;;;12.50;7.40;;;;;;;;;;5032325;28;20057;-68
2023/08/26 10:50:19;;;;;;;14.10;7.97;;;;;;;;;;5036137;28;20044;-68
2023/08/26 10:54:00;;;;;;;14.77;7.05;;;;;;;;;;5043875;28;20249;-69
2023/08/26 10:57:44;;;;;;;13.02;7.47;;;;;;;;;;5038371;28;20135;-66
2023/08/26 11:01:30;;;;;;;14.10;6.80;;;;;;;;;;5042532;28;20060;-66
2023/08/26 11:05:11;;;;;;;9.68;6.57;;;;;;;;;;5042922;28;20045;-67
2023/08/26 11:08:53;;;;;;;11.23;7.20;;;;;;;;;;5041989;28;20059;-67
2023/08/26 11:12:45;;;;;;;14.30;6.82;;;;;;;;;;5034381;28;20056;-69
2023/08/26 11:16:27;;;;;;;15.32;6.53;;;;;;;;;;5033111;28;20141;-67
2023/08/26 11:20:07;;;;;;;12.77;6.90;;;;;;;;;;5036024;28;20049;-66
2023/08/26 11:23:48;;;;;;;14.40;6.88;;;;;;;;;;5033546;28;20221;-68
2023/08/26 11:27:30;;;;;;;10.07;6.57;;;;;;;;;;5038070;28;20056;-68
2023/08/26 11:31:10;;;;;;;13.85;6.60;;;;;;;;;;5041120;28;20040;-67
2023/08/26 11:34:52;;;;;;;12.98;7.10;;;;;;;;;;5039625;28;20053;-67
2023/08/26 11:38:34;;;;;;;10.77;6.40;;;;;;;;;;5043995;28;20041;-69
2023/08/26 11:42:14;;;;;;;11.15;6.80;;;;;;;;;;5039685;28;20055;-69
2023/08/26 11:45:58;;;;;;;15.32;6.68;;;;;;;;;;5031565;28;20109;-69
2023/08/26 11:49:38;;;;;;;9.85;6.20;;;;;;;;;;5038054;28;20091;-69
2023/08/26 11:53:19;;;;;;;12.15;5.97;;;;;;;;;;5036581;28;20056;-67
2023/08/26 11:57:00;;;;;;;12.70;6.20;;;;;;;;;;5033224;28;20077;-68
2023/08/26 12:00:28;;;;;;;10.02;6.40;;;;;;;;;;5035263;28;20052;-68
2023/08/26 12:04:08;;;;;;;16.58;6.15;;;;;;;;;;5033978;28;20071;-67
2023/08/26 12:07:49;;;;;;;13.57;6.40;;;;;;;;;;5034294;28;20071;-67
2023/08/26 12:11:29;;;;;;;13.00;6.47;;;;;;;;;;5031437;28;20048;-68
2023/08/26 12:15:09;;;;;;;12.30;6.45;;;;;;;;;;5032969;28;20439;-69
2023/08/26 12:18:53;;;;;;;13.25;6.20;;;;;;;;;;5040476;28;20049;-68
2023/08/26 12:22:32;;;;;;;11.73;6.75;;;;;;;;;;5040257;28;20084;-69
2023/08/26 12:26:18;;;;;;;14.27;6.88;;;;;;;;;;5038585;28;20053;-68
2023/08/26 12:29:58;;;;;;;13.32;6.50;;;;;;;;;;5038564;28;20291;-68
2023/08/26 12:33:39;;;;;;;13.25;6.70;;;;;;;;;;5040978;28;20044;-72
2023/08/26 12:37:21;;;;;;;12.18;6.22;;;;;;;;;;5038626;28;20053;-69
2023/08/26 12:41:04;;;;;;;12.90;6.20;;;;;;;;;;5040903;28;20088;-67
2023/08/26 12:44:42;;;;;;;14.35;5.82;;;;;;;;;;5036124;28;20040;-70
2023/08/26 12:48:23;;;;;;;13.93;6.35;;;;;;;;;;5038505;28;20471;-68
2023/08/26 12:52:03;;;;;;;10.05;5.75;;;;;;;;;;5040829;28;20476;-69
2023/08/26 12:55:45;;;;;;;12.25;5.60;;;;;;;;;;5034684;28;20053;-71
2023/08/26 12:59:26;;;;;;;11.45;5.63;;;;;;;;;;5034733;28;20227;-68
2023/08/26 13:03:05;;;;;;;14.85;6.15;;;;;;;;;;5038995;28;20136;-69
2023/08/26 13:06:45;;;;;;;13.57;6.07;;;;;;;;;;5034222;28;20041;-69
2023/08/26 13:10:26;;;;;;;12.45;6.18;;;;;;;;;;5043611;28;20049;-69
2023/08/26 13:14:07;;;;;;;14.20;6.00;;;;;;;;;;5040575;28;20116;-67
2023/08/26 13:17:51;;;;;;;13.27;6.30;;;;;;;;;;5051361;28;20049;-70
2023/08/26 13:21:28;;;;;;;12.82;5.60;;;;;;;;;;5045626;28;20110;-70
2023/08/26 13:25:09;;;;;;;13.38;5.90;;;;;;;;;;5038832;28;20048;-70
2023/08/26 13:28:49;;;;;;;10.55;5.80;;;;;;;;;;5044771;28;20334;-69
2023/08/26 13:32:29;;;;;;;11.98;5.88;;;;;;;;;;5039685;28;20053;-67
2023/08/26 13:36:12;;;;;;;11.65;5.50;;;;;;;;;;5039184;28;20053;-68
2023/08/26 13:39:53;;;;;;;12.40;5.80;;;;;;;;;;5043294;28;20053;-68
2023/08/26 13:43:33;;;;;;;13.93;5.70;;;;;;;;;;5041152;28;20041;-67
2023/08/26 13:47:13;;;;;;;14.30;5.90;;;;;;;;;;5043687;28;20052;-69
2023/08/26 13:50:55;;;;;;;7.65;5.47;;;;;;;;;;5047930;28;20060;-68
2023/08/26 13:54:35;;;;;;;14.38;5.63;;;;;;;;;;5040403;28;20040;-70
2023/08/26 13:58:21;;;;;;;12.32;5.55;;;;;;;;;;5038022;28;20056;-68
2023/08/26 14:01:56;;;;;;;10.55;5.90;;;;;;;;;;5045492;28;20157;-70
2023/08/26 14:05:36;;;;;;;8.70;5.72;;;;;;;;;;5036617;28;20110;-69
2023/08/26 14:09:16;;;;;;;12.88;6.22;;;;;;;;;;5042456;28;20504;-70
2023/08/26 14:12:58;;;;;;;14.88;5.97;;;;;;;;;;5044421;28;20045;-68
2023/08/26 14:16:39;;;;;;;12.48;5.90;;;;;;;;;;5039775;28;20054;-71
2023/08/26 14:20:19;;;;;;;12.15;6.13;;;;;;;;;;5047886;28;20061;-70
2023/08/26 14:23:59;;;;;;;11.07;6.05;;;;;;;;;;5043893;28;20075;-70
2023/08/26 14:27:40;;;;;;;10.90;5.75;;;;;;;;;;5038324;28;20596;-65
2023/08/26 14:31:21;;;;;;;10.18;5.93;;;;;;;;;;5034955;28;20045;-64
2023/08/26 14:35:03;;;;;;;11.57;5.97;;;;;;;;;;5043897;28;20052;-69
2023/08/26 14:38:42;;;;;;;14.38;6.40;;;;;;;;;;5043944;28;20079;-67
2023/08/26 14:42:22;;;;;;;13.15;5.85;;;;;;;;;;5040046;28;20060;-71
2023/08/26 14:46:04;;;;;;;12.65;5.95;;;;;;;;;;5036488;28;20561;-69
2023/08/26 14:49:45;;;;;;;11.93;6.38;;;;;;;;;;5042522;28;20040;-69
2023/08/26 14:53:26;;;;;;;10.27;5.63;;;;;;;;;;5041683;28;20064;-70
2023/08/26 14:57:06;;;;;;;12.57;5.93;;;;;;;;;;5036363;28;20453;-71
2023/08/26 15:00:47;;;;;;;11.93;6.05;;;;;;;;;;5031225;28;20641;-73
2023/08/26 15:03:49;;;;;;;13.73;5.57;;;;;;;;;;5040324;28;20512;-71
2023/08/26 15:06:15;;;;;;;12.05;5.78;;;;;;;;;;5038979;28;20146;-67
2023/08/26 15:08:41;;;;;;;12.60;5.75;;;;;;;;;;5044933;28;20132;-67
2023/08/26 15:11:08;;;;;;;13.18;5.30;;;;;;;;;;5048946;28;20454;-67
2023/08/26 15:13:35;;;;;;;15.18;6.07;;;;;;;;;;5044447;28;20056;-65
2023/08/26 15:16:01;;;;;;;14.57;5.80;;;;;;;;;;5044896;28;20697;-67
2023/08/26 15:18:27;;;;;;;26.08;12.68;;;;;;;;;;5030883;28;20047;-67
2023/08/26 15:20:53;;;;;;;25.42;11.20;;;;;;;;;;5049133;28;20098;-68
2023/08/26 15:23:19;;;;;;;19.15;7.45;;;;;;;;;;5050140;28;20087;-69
2023/08/26 15:25:47;;;;;;;10.00;5.78;;;;;;;;;;5050742;28;20060;-67
2023/08/26 15:28:14;;;;;;;11.52;6.25;;;;;;;;;;5051125;28;20390;-69
2023/08/26 15:30:53;;;;;;;14.35;6.05;;;;;;;;;;5047236;28;20060;-66
2023/08/26 15:33:19;;;;;;;15.10;6.25;;;;;;;;;;5049808;28;20385;-69
2023/08/26 15:35:50;;;;;;;15.48;6.60;;;;;;;;;;5043693;28;20045;-66
2023/08/26 15:38:16;;;;;;;11.40;6.07;;;;;;;;;;5047601;28;20068;-66
2023/08/26 15:40:56;;;;;;;14.25;5.80;;;;;;;;;;5049152;28;20065;-70
2023/08/26 15:43:24;;;;;;;16.58;5.65;;;;;;;;;;5044292;28;20049;-69
2023/08/26 15:45:53;;;;;;;21.13;6.22;;;;;;;;;;5040390;28;20520;-71
2023/08/26 15:48:20;;;;;;;14.93;6.30;;;;;;;;;;5042639;28;20049;-69
2023/08/26 15:50:46;;;;;;;12.75;6.00;;;;;;;;;;5040646;28;20045;-69
2023/08/26 15:53:13;;;;;;;13.38;5.30;;;;;;;;;;5041114;28;20044;-70
2023/08/26 15:55:41;;;;;;;11.30;5.18;;;;;;;;;;5047491;28;20053;-70
2023/08/26 15:58:06;;;;;;;17.02;5.03;;;;;;;;;;5046957;28;20448;-71
2023/08/26 16:00:33;;;;;;;12.85;5.25;;;;;;;;;;5046803;28;20053;-67
2023/08/26 16:03:01;;;;;;;9.65;5.20;;;;;;;;;;5040241;28;20057;-70
2023/08/26 16:05:36;;;;;;;14.32;5.35;;;;;;;;;;5045268;28;20088;-71
2023/08/26 16:08:04;;;;;;;16.20;6.13;;;;;;;;;;5016003;28;20447;-71
2023/08/26 16:10:31;;;;;;;15.65;5.90;;;;;;;;;;5042697;28;20107;-69
2023/08/26 16:12:57;;;;;;;12.57;6.45;;;;;;;;;;5046699;28;20071;-70
2023/08/26 16:15:23;;;;;;;15.10;6.20;;;;;;;;;;5031126;28;20048;-73
2023/08/26 16:17:49;;;;;;;9.70;5.22;;;;;;;;;;5039409;28;20413;-67
2023/08/26 16:20:18;;;;;;;10.85;6.07;;;;;;;;;;5028740;28;20444;-68
2023/08/26 16:22:44;;;;;;;16.70;7.38;;;;;;;;;;5023886;28;20048;-68
2023/08/26 16:25:10;;;;;;;16.15;7.40;;;;;;;;;;5049600;28;20400;-67
2023/08/26 16:27:36;;;;;;;21.30;7.57;;;;;;;;;;5049068;28;20053;-67
2023/08/26 16:30:04;;;;;;;18.30;7.82;;;;;;;;;;5044687;28;20060;-68
2023/08/26 16:32:32;;;;;;;22.83;8.50;;;;;;;;;;5045132;28;20045;-67
2023/08/26 16:34:58;;;;;;;22.42;8.40;;;;;;;;;;5040459;28;20052;-68
2023/08/26 16:37:25;;;;;;;22.90;8.65;;;;;;;;;;5038415;28;20037;-67
2023/08/26 16:39:51;;;;;;;22.40;8.85;;;;;;;;;;5048644;28;20049;-67
2023/08/26 16:42:17;;;;;;;23.20;9.48;;;;;;;;;;5040366;28;20053;-66
2023/08/26 16:44:44;;;;;;;20.23;8.75;;;;;;;;;;5050873;28;20076;-67
2023/08/26 16:47:13;;;;;;;17.80;8.45;;;;;;;;;;5043485;28;20068;-69
2023/08/26 16:49:40;;;;;;;20.95;8.75;;;;;;;;;;5044977;28;20053;-67
2023/08/26 16:52:06;;;;;;;23.55;8.80;;;;;;;;;;5029466;28;20045;-66
2023/08/26 16:54:33;;;;;;;25.77;9.80;;;;;;;;;;5043044;28;20055;-65
2023/08/26 16:56:59;;;;;;;16.02;9.05;;;;;;;;;;5038739;28;20057;-65
2023/08/26 16:59:25;;;;;;;21.77;9.25;;;;;;;;;;5049114;28;20040;-66
2023/08/26 17:01:51;;;;;;;32.95;7.30;;;;;;;;;;5048229;28;20686;-65
2023/08/26 17:04:18;;;;;;;53.70;9.90;;;;;;;;;;5030392;28;20045;-71
2023/08/26 17:06:44;;;;;;;38.65;10.23;;;;;;;;;;5048555;28;20057;-69
2023/08/26 17:09:10;;;;;;;30.25;7.03;;;;;;;;;;5042123;28;20041;-71
2023/08/26 17:11:37;;;;;;;30.38;7.72;;;;;;;;;;5049974;28;20045;-71
2023/08/26 17:14:05;;;;;;;27.15;6.55;;;;;;;;;;5051139;28;20037;-69
2023/08/26 17:16:34;;;;;;;20.88;6.70;;;;;;;;;;5042025;28;20202;-70
2023/08/26 17:19:03;;;;;;;20.88;6.38;;;;;;;;;;5052371;28;20068;-70
2023/08/26 17:21:29;;;;;;;24.83;6.55;;;;;;;;;;5046962;28;20485;-71
2023/08/26 17:23:55;;;;;;;20.80;6.18;;;;;;;;;;5047675;28;20075;-70
2023/08/26 17:26:21;;;;;;;20.42;5.55;;;;;;;;;;5039657;28;20067;-69
2023/08/26 17:28:49;;;;;;;23.40;6.63;;;;;;;;;;5031412;28;20138;-69
2023/08/26 17:31:15;;;;;;;28.77;7.50;;;;;;;;;;5041919;28;20087;-70
2023/08/26 17:33:42;;;;;;;40.33;8.35;;;;;;;;;;5048227;28;20516;-70
2023/08/26 17:36:09;;;;;;;32.97;8.90;;;;;;;;;;5048509;28;20045;-70
2023/08/26 17:38:35;;;;;;;45.88;9.25;;;;;;;;;;5049863;28;20044;-71
2023/08/26 17:41:02;;;;;;;37.08;7.60;;;;;;;;;;5048644;28;20041;-69
2023/08/26 17:43:29;;;;;;;41.67;7.68;;;;;;;;;;5049690;28;20061;-70
2023/08/26 17:45:55;;;;;;;39.50;7.47;;;;;;;;;;5048779;28;20117;-71
2023/08/26 17:48:21;;;;;;;38.70;7.32;;;;;;;;;;5048346;28;20682;-69
2023/08/26 17:50:51;;;;;;;40.35;7.28;;;;;;;;;;5047951;28;20049;-69
2023/08/26 17:53:18;;;;;;;39.97;8.75;;;;;;;;;;5050244;28;20128;-69
2023/08/26 17:55:45;;;;;;;39.00;7.78;;;;;;;;;;5048349;28;20555;-68
2023/08/26 17:58:12;;;;;;;30.02;6.72;;;;;;;;;;5043028;28;20465;-68
2023/08/26 18:00:39;;;;;;;25.10;6.15;;;;;;;;;;5050846;28;20118;-70
2023/08/26 18:03:11;;;;;;;24.08;5.97;;;;;;;;;;5044442;28;20049;-71
2023/08/26 18:05:38;;;;;;;30.77;6.10;;;;;;;;;;5047247;28;20107;-68
2023/08/26 18:08:07;;;;;;;33.90;6.72;;;;;;;;;;5048380;28;20047;-69
2023/08/26 18:10:34;;;;;;;26.83;6.60;;;;;;;;;;5049556;28;20053;-68
2023/08/26 18:13:06;;;;;;;26.70;6.35;;;;;;;;;;5049344;28;20060;-69
2023/08/26 18:15:36;;;;;;;22.13;5.30;;;;;;;;;;5040648;28;20055;-68
2023/08/26 18:18:03;;;;;;;19.70;4.95;;;;;;;;;;5049912;28;20060;-67
2023/08/26 18:20:29;;;;;;;18.63;5.38;;;;;;;;;;5049040;28;20052;-68
2023/08/26 18:22:55;;;;;;;14.60;4.13;;;;;;;;;;5049674;28;20103;-69
2023/08/26 18:25:22;;;;;;;21.33;4.32;;;;;;;;;;5048354;28;20072;-70
2023/08/26 18:27:48;;;;;;;20.83;4.28;;;;;;;;;;5048727;28;20060;-69
2023/08/26 18:30:14;;;;;;;17.90;4.00;;;;;;;;;;5048783;28;20045;-67
2023/08/26 18:32:40;;;;;;;14.88;3.95;;;;;;;;;;5049373;28;20057;-67
2023/08/26 18:35:06;;;;;;;17.38;4.43;;;;;;;;;;5046833;28;20068;-68
2023/08/26 18:37:32;;;;;;;21.70;4.15;;;;;;;;;;5050427;28;20057;-66
2023/08/26 18:40:01;;;;;;;15.98;3.80;;;;;;;;;;5047467;28;20056;-68
2023/08/26 18:42:29;;;;;;;13.73;3.25;;;;;;;;;;5039487;28;20045;-66
2023/08/26 18:44:59;;;;;;;19.55;3.70;;;;;;;;;;5046732;28;20057;-67
2023/08/26 18:47:25;;;;;;;17.02;3.70;;;;;;;;;;5046344;28;20091;-68
2023/08/26 18:49:51;;;;;;;17.95;3.97;;;;;;;;;;5048778;28;20057;-67
2023/08/26 18:52:19;;;;;;;16.73;4.07;;;;;;;;;;5049088;28;20111;-69
2023/08/26 18:54:45;;;;;;;17.75;3.60;;;;;;;;;;5048474;28;20048;-66